createdAt,value
2023-03-22T00:01:17.280Z,7.20
2023-03-22T00:03:45.618Z,6.97
2023-03-22T00:06:13.951Z,7.22
2023-03-22T00:08:41.803Z,6.85
2023-03-22T00:11:13.760Z,6.82
2023-03-22T00:13:42.974Z,6.68
2023-03-22T00:16:11.409Z,6.95
2023-03-22T00:18:39.704Z,6.50
2023-03-22T00:21:11.738Z,6.10
2023-03-22T00:23:40.164Z,7.07
2023-03-22T00:26:08.343Z,6.70
2023-03-22T00:28:37.891Z,7.25
2023-03-22T00:31:09.352Z,5.90
2023-03-22T00:33:38.130Z,6.82
2023-03-22T00:36:08.544Z,5.97
2023-03-22T00:38:42.919Z,6.32
2023-03-22T00:41:13.873Z,6.43
2023-03-22T00:43:43.031Z,6.20
2023-03-22T00:46:11.205Z,5.72
2023-03-22T00:48:39.718Z,5.97
2023-03-22T00:51:08.694Z,6.07
2023-03-22T00:53:36.988Z,6.13
2023-03-22T00:56:05.972Z,5.88
2023-03-22T00:58:33.718Z,6.05
2023-03-22T01:01:02.898Z,6.10
2023-03-22T01:03:31.451Z,5.40
2023-03-22T01:05:59.259Z,5.43
2023-03-22T01:08:37.413Z,5.60
2023-03-22T01:11:05.810Z,5.38
2023-03-22T01:13:33.548Z,5.22
2023-03-22T01:16:03.036Z,5.68
2023-03-22T01:18:30.777Z,5.30
2023-03-22T01:20:59.792Z,5.70
2023-03-22T01:23:28.081Z,5.30
2023-03-22T01:25:55.740Z,4.88
2023-03-22T01:28:26.402Z,5.47
2023-03-22T01:30:55.441Z,5.00
2023-03-22T01:33:24.592Z,5.30
2023-03-22T01:35:52.380Z,4.70
2023-03-22T01:38:20.976Z,4.75
2023-03-22T01:40:48.641Z,4.68
2023-03-22T01:43:18.115Z,4.10
2023-03-22T01:45:48.348Z,4.70
2023-03-22T01:48:21.081Z,4.22
2023-03-22T01:50:57.334Z,4.45
2023-03-22T01:53:27.303Z,4.45
2023-03-22T01:55:58.598Z,4.35
2023-03-22T01:58:26.638Z,4.65
2023-03-22T02:00:55.083Z,4.60
2023-03-22T02:03:39.591Z,4.07
2023-03-22T02:06:09.431Z,4.43
2023-03-22T02:08:37.140Z,3.85
2023-03-22T02:11:06.480Z,4.20
2023-03-22T02:13:52.936Z,4.35
2023-03-22T02:16:33.822Z,4.35
2023-03-22T02:19:47.926Z,4.05
2023-03-22T02:22:39.360Z,3.78
2023-03-22T02:25:33.449Z,4.40
2023-03-22T02:28:14.850Z,3.90
2023-03-22T02:31:09.856Z,4.22
2023-03-22T02:33:56.569Z,3.90
2023-03-22T02:37:00.218Z,4.03
2023-03-22T02:39:37.100Z,4.30
2023-03-22T02:42:22.610Z,3.90
2023-03-22T02:45:01.516Z,4.05
2023-03-22T02:47:38.518Z,3.67
2023-03-22T02:50:13.169Z,3.45
2023-03-22T02:52:45.272Z,3.72
2023-03-22T02:55:19.666Z,3.72
2023-03-22T02:57:51.268Z,3.67
2023-03-22T03:00:20.985Z,4.00
2023-03-22T03:05:19.869Z,4.03
2023-03-22T03:07:53.903Z,3.72
2023-03-22T03:10:24.080Z,3.58
2023-03-22T03:12:51.823Z,3.22
2023-03-22T03:15:21.560Z,3.60
2023-03-22T03:18:02.192Z,3.38
2023-03-22T03:20:40.266Z,3.42
2023-03-22T03:23:24.415Z,3.58
2023-03-22T03:26:02.039Z,3.38
2023-03-22T03:28:39.159Z,3.30
2023-03-22T03:31:19.477Z,3.40
2023-03-22T03:33:56.628Z,3.30
2023-03-22T03:36:27.706Z,2.95
2023-03-22T03:38:58.204Z,3.00
2023-03-22T03:41:30.426Z,2.83
2023-03-22T03:44:00.526Z,3.83
2023-03-22T03:46:29.387Z,2.95
2023-03-22T03:48:59.473Z,2.97
2023-03-22T03:51:28.502Z,3.45
2023-03-22T03:53:56.405Z,3.20
2023-03-22T03:56:24.844Z,3.20
2023-03-22T03:58:53.888Z,4.15
2023-03-22T04:01:21.670Z,3.47
2023-03-22T04:03:51.223Z,3.47
2023-03-22T04:06:18.911Z,3.67
2023-03-22T04:08:46.575Z,3.78
2023-03-22T04:11:14.870Z,3.75
2023-03-22T04:13:42.534Z,3.85
2023-03-22T04:16:11.934Z,3.67
2023-03-22T04:18:40.406Z,3.40
2023-03-22T04:21:08.516Z,3.70
2023-03-22T04:23:36.210Z,4.00
2023-03-22T04:26:04.318Z,3.72
2023-03-22T04:28:33.776Z,4.15
2023-03-22T04:31:04.406Z,3.75
2023-03-22T04:33:39.226Z,3.83
2023-03-22T04:36:10.848Z,3.80
2023-03-22T04:38:40.068Z,4.50
2023-03-22T04:41:08.134Z,4.18
2023-03-22T04:43:36.102Z,4.68
2023-03-22T04:46:03.989Z,4.28
2023-03-22T04:48:33.095Z,4.25
2023-03-22T04:51:04.465Z,4.00
2023-03-22T04:53:32.168Z,4.30
2023-03-22T04:56:00.086Z,3.67
2023-03-22T04:58:29.039Z,4.10
2023-03-22T05:00:56.711Z,4.53
2023-03-22T05:03:24.367Z,4.45
2023-03-22T05:05:55.685Z,3.92
2023-03-22T05:08:25.845Z,4.30
2023-03-22T05:10:54.251Z,4.30
2023-03-22T05:13:22.904Z,4.32
2023-03-22T05:15:51.726Z,4.65
2023-03-22T05:18:20.752Z,4.03
2023-03-22T05:20:49.538Z,4.47
2023-03-22T05:23:19.358Z,4.47
2023-03-22T05:25:47.161Z,4.88
2023-03-22T05:28:15.789Z,4.57
2023-03-22T05:30:43.997Z,4.82
2023-03-22T05:33:11.716Z,3.95
2023-03-22T05:35:41.938Z,4.35
2023-03-22T05:38:10.419Z,4.40
2023-03-22T05:40:39.779Z,4.80
2023-03-22T05:43:07.986Z,4.40
2023-03-22T05:45:37.773Z,3.72
2023-03-22T05:48:05.933Z,3.97
2023-03-22T05:50:34.710Z,4.05
2023-03-22T05:53:03.358Z,3.80
2023-03-22T05:55:32.027Z,3.50
2023-03-22T05:58:02.784Z,3.67
2023-03-22T06:00:31.925Z,3.63
2023-03-22T06:03:04.005Z,3.78
2023-03-22T06:05:32.576Z,3.20
2023-03-22T06:08:00.835Z,3.30
2023-03-22T06:10:28.793Z,3.20
2023-03-22T06:12:56.546Z,2.92
2023-03-22T06:15:25.733Z,4.05
2023-03-22T06:17:53.880Z,2.90
2023-03-22T06:20:21.537Z,2.97
2023-03-22T06:22:49.213Z,2.80
2023-03-22T06:25:17.531Z,2.67
2023-03-22T06:27:45.245Z,2.90
2023-03-22T06:30:13.431Z,2.80
2023-03-22T06:32:42.976Z,2.70
2023-03-22T06:35:11.012Z,2.92
2023-03-22T06:37:38.705Z,2.90
2023-03-22T06:40:07.693Z,2.97
2023-03-22T06:42:36.943Z,3.35
2023-03-22T06:45:06.070Z,3.00
2023-03-22T06:47:34.198Z,2.88
2023-03-22T06:50:03.249Z,2.70
2023-03-22T06:52:30.933Z,2.85
2023-03-22T06:54:59.205Z,3.13
2023-03-22T06:57:26.921Z,2.85
2023-03-22T06:59:54.661Z,2.28
2023-03-22T07:02:22.798Z,3.00
2023-03-22T07:04:50.561Z,2.90
2023-03-22T07:07:19.659Z,2.92
2023-03-22T07:09:47.973Z,2.50
2023-03-22T07:12:15.657Z,2.67
2023-03-22T07:14:43.597Z,2.63
2023-03-22T07:17:13.035Z,3.00
2023-03-22T07:19:41.824Z,2.95
2023-03-22T07:22:09.810Z,2.65
2023-03-22T07:24:50.334Z,3.13
2023-03-22T07:27:23.783Z,2.50
2023-03-22T07:29:52.007Z,3.00
2023-03-22T07:32:21.280Z,2.80
2023-03-22T07:34:48.990Z,2.65
2023-03-22T07:37:17.273Z,2.47
2023-03-22T07:39:46.336Z,2.35
2023-03-22T07:42:14.022Z,3.00
2023-03-22T07:44:42.577Z,2.72
2023-03-22T07:47:10.466Z,2.53
2023-03-22T07:49:38.459Z,2.97
2023-03-22T07:52:07.072Z,3.13
2023-03-22T07:54:34.894Z,2.50
2023-03-22T07:57:04.029Z,3.05
2023-03-22T07:59:32.542Z,2.72
2023-03-22T08:02:00.422Z,2.65
2023-03-22T08:04:28.155Z,2.80
2023-03-22T08:06:59.066Z,2.47
2023-03-22T08:09:26.947Z,2.45
2023-03-22T08:11:54.636Z,2.50
2023-03-22T08:14:35.443Z,2.33
2023-03-22T08:17:04.185Z,2.28
2023-03-22T08:19:33.486Z,2.40
2023-03-22T08:22:01.431Z,2.55
2023-03-22T08:24:29.420Z,2.33
2023-03-22T08:26:58.128Z,2.58
2023-03-22T08:29:27.671Z,3.10
2023-03-22T08:31:56.031Z,3.05
2023-03-22T08:34:23.778Z,2.92
2023-03-22T08:36:51.438Z,2.40
2023-03-22T08:39:19.147Z,2.47
2023-03-22T08:41:47.370Z,2.60
2023-03-22T08:44:15.050Z,2.67
2023-03-22T08:46:44.310Z,2.42
2023-03-22T08:49:12.918Z,2.53
2023-03-22T08:51:40.957Z,2.70
2023-03-22T08:54:08.976Z,2.30
2023-03-22T08:56:38.120Z,2.45
2023-03-22T08:59:06.588Z,2.65
2023-03-22T09:01:35.644Z,2.38
2023-03-22T09:04:05.951Z,2.60
2023-03-22T09:06:34.154Z,2.13
2023-03-22T09:09:02.100Z,2.75
2023-03-22T09:11:30.139Z,2.58
2023-03-22T09:13:58.051Z,2.67
2023-03-22T09:16:26.184Z,2.55
2023-03-22T09:18:54.277Z,2.45
2023-03-22T09:21:23.697Z,2.97
2023-03-22T09:23:51.870Z,3.00
2023-03-22T09:26:20.243Z,2.75
2023-03-22T09:28:48.310Z,2.45
2023-03-22T09:31:17.461Z,2.70
2023-03-22T09:33:47.014Z,2.20
2023-03-22T09:36:14.744Z,2.60
2023-03-22T09:38:43.808Z,2.30
2023-03-22T09:41:15.567Z,2.35
2023-03-22T09:43:46.797Z,2.83
2023-03-22T09:46:18.309Z,2.33
2023-03-22T09:48:49.594Z,1.90
2023-03-22T09:51:34.443Z,2.10
2023-03-22T09:54:03.666Z,2.17
2023-03-22T09:56:33.097Z,2.72
2023-03-22T09:59:07.396Z,2.50
2023-03-22T10:01:44.508Z,2.75
2023-03-22T10:04:37.917Z,2.33
2023-03-22T10:07:11.692Z,2.30
2023-03-22T10:09:51.161Z,2.20
2023-03-22T10:12:27.694Z,1.95
2023-03-22T10:15:04.352Z,2.05
2023-03-22T10:17:33.088Z,2.50
2023-03-22T10:20:06.653Z,2.73
2023-03-22T10:22:37.802Z,1.90
2023-03-22T10:25:09.902Z,2.17
2023-03-22T10:27:38.658Z,2.20
2023-03-22T10:30:11.845Z,1.80
2023-03-22T10:32:57.220Z,2.08
2023-03-22T10:35:26.696Z,1.80
2023-03-22T10:37:56.886Z,2.03
2023-03-22T10:40:28.794Z,2.10
2023-03-22T10:42:58.927Z,1.70
2023-03-22T10:45:28.720Z,2.03
2023-03-22T10:48:01.033Z,1.83
2023-03-22T10:50:33.739Z,2.10
2023-03-22T10:53:05.806Z,2.30
2023-03-22T10:55:40.750Z,2.10
2023-03-22T10:58:16.663Z,2.38
2023-03-22T11:00:49.503Z,2.10
2023-03-22T11:03:32.183Z,2.42
2023-03-22T11:06:03.500Z,2.13
2023-03-22T11:08:40.354Z,2.47
2023-03-22T11:11:17.942Z,2.35
2023-03-22T11:13:51.756Z,2.08
2023-03-22T11:16:20.514Z,2.42
2023-03-22T11:18:48.772Z,2.25
2023-03-22T11:21:18.643Z,2.25
2023-03-22T11:23:55.684Z,1.83
2023-03-22T11:26:30.968Z,2.15
2023-03-22T11:29:07.864Z,2.40
2023-03-22T11:31:57.458Z,2.60
2023-03-22T11:36:57.050Z,2.60
2023-03-22T11:39:28.828Z,2.35
2023-03-22T11:42:01.547Z,2.40
2023-03-22T11:44:35.014Z,2.08
2023-03-22T11:47:05.504Z,2.75
2023-03-22T11:49:41.283Z,2.55
2023-03-22T11:52:13.013Z,2.80
2023-03-22T11:54:43.183Z,2.60
2023-03-22T11:57:17.390Z,2.72
2023-03-22T11:59:51.786Z,2.42
2023-03-22T12:02:25.067Z,2.90
2023-03-22T12:05:01.236Z,2.80
2023-03-22T12:07:31.337Z,3.15
2023-03-22T12:10:04.214Z,2.70
2023-03-22T12:12:38.560Z,3.00
2023-03-22T12:15:14.832Z,3.03
2023-03-22T12:17:48.561Z,3.35
2023-03-22T12:20:23.408Z,2.88
2023-03-22T12:22:55.311Z,2.90
2023-03-22T12:25:26.805Z,2.85
2023-03-22T12:27:59.231Z,3.00
2023-03-22T12:30:29.819Z,2.80
2023-03-22T12:33:02.929Z,3.00
2023-03-22T12:35:34.860Z,3.00
2023-03-22T12:38:12.137Z,2.88
2023-03-22T12:40:42.965Z,3.03
2023-03-22T12:43:17.959Z,2.70
2023-03-22T12:45:49.752Z,2.95
2023-03-22T12:48:21.670Z,2.90
2023-03-22T12:50:53.401Z,3.08
2023-03-22T12:53:23.553Z,3.30
2023-03-22T12:55:52.363Z,3.45
2023-03-22T12:58:25.058Z,5.00
2023-03-22T13:00:58.003Z,4.03
2023-03-22T13:03:40.880Z,4.32
2023-03-22T13:06:33.701Z,3.47
2023-03-22T13:09:18.363Z,3.78
2023-03-22T13:11:48.748Z,3.40
2023-03-22T13:14:50.461Z,3.00
2023-03-22T13:17:47.016Z,3.10
2023-03-22T13:20:34.608Z,3.50
2023-03-22T13:23:11.817Z,3.10
2023-03-22T13:25:41.920Z,3.10
2023-03-22T13:28:27.242Z,3.30
2023-03-22T13:30:58.636Z,2.80
2023-03-22T13:33:30.362Z,2.70
2023-03-22T13:36:00.657Z,3.00
2023-03-22T13:38:31.709Z,3.00
2023-03-22T13:41:03.749Z,3.05
2023-03-22T13:43:35.059Z,3.72
2023-03-22T13:46:29.114Z,3.13
2023-03-22T13:49:20.613Z,3.20
2023-03-22T13:51:50.426Z,3.10
2023-03-22T13:54:24.044Z,3.08
2023-03-22T13:56:57.118Z,3.78
2023-03-22T13:59:31.254Z,3.47
2023-03-22T14:02:05.574Z,3.67
2023-03-22T14:04:40.781Z,4.28
2023-03-22T14:07:20.964Z,3.65
2023-03-22T14:09:52.308Z,3.53
2023-03-22T14:12:24.080Z,3.70
2023-03-22T14:14:56.775Z,3.83
2023-03-22T14:17:35.371Z,3.72
2023-03-22T14:20:10.396Z,3.90
